Aérodrome :
LOGIN :

S'inscrire | Disclaimer

   EN    FR    IT 

 










Légende :    VFR   VFR Marginal   IFR   IFR Intensif   IFR Très Intensif
Visi : 
Plafond : 
>= 8 km
>= 3000ft
5 à 8 km
1000 à 3000 ft
1500m à 5 km
500 à 1000 ft
800 à 1500m
200 à 500 ft
< 800m
< 200 ft
Symboles :   Orages  Brouillard  Fortes neiges  Fortes précipitations  Vent > 20 kt
SIGMETs :   Divers  Orages  Givrage  Turbulence  Onde Orograph.  Cendres Volcan.






- Altitude de l'aérodrome : 203 ft
- Code IATA : XMJ


LFBM - Mont-De-Marsan

DERNIER METAR :
  • 291230Z AUTO VRB04KT CAVOK 29/13 Q1015 NOSIG

METARs EXPIRÉS :
  • 291200Z AUTO VRB03KT CAVOK 28/12 Q1015 NOSIG
  • 291130Z AUTO VRB04KT CAVOK 28/14 Q1016 NOSIG
  • 291100Z AUTO 36004KT 250V050 CAVOK 27/13 Q1016 NOSIG
  • 291030Z AUTO 01005KT 300V050 CAVOK 27/14 Q1016 NOSIG
  • 291000Z AUTO 03005KT 310V070 CAVOK 26/14 Q1016 NOSIG

TAF TAF LFBM
Valide du 29 à 09h jusqu'au 30 à 09h UTC


290800Z 2909/3009 02005KT CAVOK



MET'MAP, la Météo Aéronautique d'un coup d'oeil ! - Copyright ORBIFLY Décembre 2007 - Disclaimer

ORBIFLY MET'MAP TEAM :

Programmation & Développement : Alexandra Zaïnal
Sur une idée originale de : Baudouin d'Aumeries
Assistance à la programmation : Marc-Olivier Méhu
Soutien technique & logistique : Manuel Goepfert

Contact : metmap@orbifly.com




SOURCES & CREDITS :

   NOAA